sensor_id;sensor_type;location;lat;lon;timestamp;P1;P2;P0
42410;PMS5003;28056;51.112;0.984;2023-04-24T00:04:47;27;19;
42410;PMS5003;28056;51.112;0.984;2023-04-24T00:07:14;27;25;
42410;PMS5003;28056;51.112;0.984;2023-04-24T00:09:41;23;23;
42410;PMS5003;28056;51.112;0.984;2023-04-24T00:12:09;28;24;
42410;PMS5003;28056;51.112;0.984;2023-04-24T00:14:37;37;30;
42410;PMS5003;28056;51.112;0.984;2023-04-24T00:17:05;34;30;
42410;PMS5003;28056;51.112;0.984;2023-04-24T00:19:32;30;29;
42410;PMS5003;28056;51.112;0.984;2023-04-24T00:21:59;40;29;
42410;PMS5003;28056;51.112;0.984;2023-04-24T00:24:26;31;28;
42410;PMS5003;28056;51.112;0.984;2023-04-24T00:26:54;24;20;
42410;PMS5003;28056;51.112;0.984;2023-04-24T00:29:21;33;29;
42410;PMS5003;28056;51.112;0.984;2023-04-24T00:31:48;27;25;
42410;PMS5003;28056;51.112;0.984;2023-04-24T00:34:16;27;26;
42410;PMS5003;28056;51.112;0.984;2023-04-24T00:36:43;32;25;
42410;PMS5003;28056;51.112;0.984;2023-04-24T00:39:11;30;27;
42410;PMS5003;28056;51.112;0.984;2023-04-24T00:41:39;30;27;
42410;PMS5003;28056;51.112;0.984;2023-04-24T00:44:06;29;25;
42410;PMS5003;28056;51.112;0.984;2023-04-24T00:46:33;31;29;
42410;PMS5003;28056;51.112;0.984;2023-04-24T00:49:02;35;31;
42410;PMS5003;28056;51.112;0.984;2023-04-24T00:51:30;30;25;
42410;PMS5003;28056;51.112;0.984;2023-04-24T00:53:58;29;25;
42410;PMS5003;28056;51.112;0.984;2023-04-24T00:56:26;34;31;
42410;PMS5003;28056;51.112;0.984;2023-04-24T00:58:54;34;30;
42410;PMS5003;28056;51.112;0.984;2023-04-24T01:01:22;33;29;
42410;PMS5003;28056;51.112;0.984;2023-04-24T01:03:50;29;26;
42410;PMS5003;28056;51.112;0.984;2023-04-24T01:06:19;28;22;
42410;PMS5003;28056;51.112;0.984;2023-04-24T01:08:46;35;26;
42410;PMS5003;28056;51.112;0.984;2023-04-24T01:11:15;31;25;
42410;PMS5003;28056;51.112;0.984;2023-04-24T01:13:42;30;28;
42410;PMS5003;28056;51.112;0.984;2023-04-24T01:16:10;24;22;
42410;PMS5003;28056;51.112;0.984;2023-04-24T01:18:37;25;22;
42410;PMS5003;28056;51.112;0.984;2023-04-24T01:21:04;30;26;
42410;PMS5003;28056;51.112;0.984;2023-04-24T01:23:35;25;21;
42410;PMS5003;28056;51.112;0.984;2023-04-24T01:26:02;28;24;
42410;PMS5003;28056;51.112;0.984;2023-04-24T01:28:29;28;24;
42410;PMS5003;28056;51.112;0.984;2023-04-24T01:30:56;24;20;
42410;PMS5003;28056;51.112;0.984;2023-04-24T01:33:24;25;25;
42410;PMS5003;28056;51.112;0.984;2023-04-24T01:35:52;29;25;
42410;PMS5003;28056;51.112;0.984;2023-04-24T01:38:20;21;17;
42410;PMS5003;28056;51.112;0.984;2023-04-24T01:40:47;26;22;
42410;PMS5003;28056;51.112;0.984;2023-04-24T01:43:15;26;22;
42410;PMS5003;28056;51.112;0.984;2023-04-24T01:45:43;18;18;
42410;PMS5003;28056;51.112;0.984;2023-04-24T01:48:11;21;20;
42410;PMS5003;28056;51.112;0.984;2023-04-24T01:50:39;29;29;
42410;PMS5003;28056;51.112;0.984;2023-04-24T01:53:07;32;22;
42410;PMS5003;28056;51.112;0.984;2023-04-24T01:55:34;28;24;
42410;PMS5003;28056;51.112;0.984;2023-04-24T01:58:01;26;22;
42410;PMS5003;28056;51.112;0.984;2023-04-24T02:00:29;26;22;
42410;PMS5003;28056;51.112;0.984;2023-04-24T02:02:56;28;25;
42410;PMS5003;28056;51.112;0.984;2023-04-24T02:05:23;29;25;
42410;PMS5003;28056;51.112;0.984;2023-04-24T02:07:51;37;28;
42410;PMS5003;28056;51.112;0.984;2023-04-24T02:10:18;36;30;
42410;PMS5003;28056;51.112;0.984;2023-04-24T02:12:45;24;24;
42410;PMS5003;28056;51.112;0.984;2023-04-24T02:15:12;29;27;
42410;PMS5003;28056;51.112;0.984;2023-04-24T02:17:40;28;25;
42410;PMS5003;28056;51.112;0.984;2023-04-24T02:20:07;25;18;
42410;PMS5003;28056;51.112;0.984;2023-04-24T02:22:35;26;20;
42410;PMS5003;28056;51.112;0.984;2023-04-24T02:25:02;25;24;
42410;PMS5003;28056;51.112;0.984;2023-04-24T02:27:30;25;23;
42410;PMS5003;28056;51.112;0.984;2023-04-24T02:29:57;23;19;
42410;PMS5003;28056;51.112;0.984;2023-04-24T02:32:24;31;27;
42410;PMS5003;28056;51.112;0.984;2023-04-24T02:34:52;23;23;
42410;PMS5003;28056;51.112;0.984;2023-04-24T02:37:19;27;26;
42410;PMS5003;28056;51.112;0.984;2023-04-24T02:39:47;27;27;
42410;PMS5003;28056;51.112;0.984;2023-04-24T02:42:14;26;23;
42410;PMS5003;28056;51.112;0.984;2023-04-24T02:44:42;29;23;
42410;PMS5003;28056;51.112;0.984;2023-04-24T02:47:09;26;25;
42410;PMS5003;28056;51.112;0.984;2023-04-24T02:49:36;30;23;
42410;PMS5003;28056;51.112;0.984;2023-04-24T02:52:04;28;21;
42410;PMS5003;28056;51.112;0.984;2023-04-24T02:54:32;30;26;
42410;PMS5003;28056;51.112;0.984;2023-04-24T02:56:59;27;26;
42410;PMS5003;28056;51.112;0.984;2023-04-24T02:59:27;31;30;
42410;PMS5003;28056;51.112;0.984;2023-04-24T03:01:55;29;28;
42410;PMS5003;28056;51.112;0.984;2023-04-24T03:04:22;33;26;
42410;PMS5003;28056;51.112;0.984;2023-04-24T03:06:49;26;26;
42410;PMS5003;28056;51.112;0.984;2023-04-24T03:09:17;29;21;
42410;PMS5003;28056;51.112;0.984;2023-04-24T03:11:44;25;23;
42410;PMS5003;28056;51.112;0.984;2023-04-24T03:14:11;27;24;
42410;PMS5003;28056;51.112;0.984;2023-04-24T03:16:39;25;23;
42410;PMS5003;28056;51.112;0.984;2023-04-24T03:19:06;34;25;
42410;PMS5003;28056;51.112;0.984;2023-04-24T03:21:34;32;26;
42410;PMS5003;28056;51.112;0.984;2023-04-24T03:24:00;32;28;
42410;PMS5003;28056;51.112;0.984;2023-04-24T03:26:28;27;26;
42410;PMS5003;28056;51.112;0.984;2023-04-24T03:28:55;27;26;
42410;PMS5003;28056;51.112;0.984;2023-04-24T03:31:22;36;28;
42410;PMS5003;28056;51.112;0.984;2023-04-24T03:33:50;26;22;
42410;PMS5003;28056;51.112;0.984;2023-04-24T03:36:17;27;25;
42410;PMS5003;28056;51.112;0.984;2023-04-24T03:38:44;30;24;
42410;PMS5003;28056;51.112;0.984;2023-04-24T03:41:11;30;25;
42410;PMS5003;28056;51.112;0.984;2023-04-24T03:43:39;31;29;
42410;PMS5003;28056;51.112;0.984;2023-04-24T03:46:06;22;19;
42410;PMS5003;28056;51.112;0.984;2023-04-24T03:48:33;26;19;
42410;PMS5003;28056;51.112;0.984;2023-04-24T03:51:01;35;31;
42410;PMS5003;28056;51.112;0.984;2023-04-24T03:53:28;29;27;
42410;PMS5003;28056;51.112;0.984;2023-04-24T03:55:56;27;22;
42410;PMS5003;28056;51.112;0.984;2023-04-24T03:58:23;27;23;
42410;PMS5003;28056;51.112;0.984;2023-04-24T04:00:50;26;23;
42410;PMS5003;28056;51.112;0.984;2023-04-24T04:03:18;30;25;
42410;PMS5003;28056;51.112;0.984;2023-04-24T04:05:45;33;27;
42410;PMS5003;28056;51.112;0.984;2023-04-24T04:08:13;29;29;
42410;PMS5003;28056;51.112;0.984;2023-04-24T04:10:41;25;19;
42410;PMS5003;28056;51.112;0.984;2023-04-24T04:13:08;29;21;
42410;PMS5003;28056;51.112;0.984;2023-04-24T04:15:35;30;27;
42410;PMS5003;28056;51.112;0.984;2023-04-24T04:18:03;27;22;
42410;PMS5003;28056;51.112;0.984;2023-04-24T04:20:30;25;22;
42410;PMS5003;28056;51.112;0.984;2023-04-24T04:22:58;25;22;
42410;PMS5003;28056;51.112;0.984;2023-04-24T04:25:26;33;21;
42410;PMS5003;28056;51.112;0.984;2023-04-24T04:27:53;30;25;
42410;PMS5003;28056;51.112;0.984;2023-04-24T04:30:20;34;29;
42410;PMS5003;28056;51.112;0.984;2023-04-24T04:32:48;25;22;
42410;PMS5003;28056;51.112;0.984;2023-04-24T04:35:15;26;22;
42410;PMS5003;28056;51.112;0.984;2023-04-24T04:37:43;22;21;
42410;PMS5003;28056;51.112;0.984;2023-04-24T04:40:10;31;26;
42410;PMS5003;28056;51.112;0.984;2023-04-24T04:42:37;25;23;
42410;PMS5003;28056;51.112;0.984;2023-04-24T04:45:05;31;30;
42410;PMS5003;28056;51.112;0.984;2023-04-24T04:47:34;25;23;
42410;PMS5003;28056;51.112;0.984;2023-04-24T04:50:01;22;21;
42410;PMS5003;28056;51.112;0.984;2023-04-24T04:52:28;34;27;
42410;PMS5003;28056;51.112;0.984;2023-04-24T04:54:55;26;26;
42410;PMS5003;28056;51.112;0.984;2023-04-24T04:57:22;22;19;
42410;PMS5003;28056;51.112;0.984;2023-04-24T04:59:49;25;22;
42410;PMS5003;28056;51.112;0.984;2023-04-24T05:02:17;26;22;
42410;PMS5003;28056;51.112;0.984;2023-04-24T05:04:44;30;23;
42410;PMS5003;28056;51.112;0.984;2023-04-24T05:07:11;26;22;
42410;PMS5003;28056;51.112;0.984;2023-04-24T05:09:39;26;25;
42410;PMS5003;28056;51.112;0.984;2023-04-24T05:12:06;29;27;
42410;PMS5003;28056;51.112;0.984;2023-04-24T05:14:33;27;23;
42410;PMS5003;28056;51.112;0.984;2023-04-24T05:17:00;31;23;
42410;PMS5003;28056;51.112;0.984;2023-04-24T05:19:27;30;29;
42410;PMS5003;28056;51.112;0.984;2023-04-24T05:21:55;30;25;
42410;PMS5003;28056;51.112;0.984;2023-04-24T05:24:22;27;25;
42410;PMS5003;28056;51.112;0.984;2023-04-24T05:26:49;41;33;
42410;PMS5003;28056;51.112;0.984;2023-04-24T05:29:17;36;28;
42410;PMS5003;28056;51.112;0.984;2023-04-24T05:31:44;48;38;
42410;PMS5003;28056;51.112;0.984;2023-04-24T05:34:11;53;44;
42410;PMS5003;28056;51.112;0.984;2023-04-24T05:36:38;39;34;
42410;PMS5003;28056;51.112;0.984;2023-04-24T05:39:06;42;36;
42410;PMS5003;28056;51.112;0.984;2023-04-24T05:41:34;38;36;
42410;PMS5003;28056;51.112;0.984;2023-04-24T05:44:01;47;39;
42410;PMS5003;28056;51.112;0.984;2023-04-24T05:46:28;52;47;
42410;PMS5003;28056;51.112;0.984;2023-04-24T05:48:56;53;40;
42410;PMS5003;28056;51.112;0.984;2023-04-24T05:51:23;43;40;
42410;PMS5003;28056;51.112;0.984;2023-04-24T05:53:51;47;42;
42410;PMS5003;28056;51.112;0.984;2023-04-24T05:56:19;43;37;
42410;PMS5003;28056;51.112;0.984;2023-04-24T05:58:47;36;32;
42410;PMS5003;28056;51.112;0.984;2023-04-24T06:01:14;43;36;
42410;PMS5003;28056;51.112;0.984;2023-04-24T06:03:41;57;49;
42410;PMS5003;28056;51.112;0.984;2023-04-24T06:06:09;47;41;
42410;PMS5003;28056;51.112;0.984;2023-04-24T06:08:37;39;29;
42410;PMS5003;28056;51.112;0.984;2023-04-24T06:11:04;39;35;
42410;PMS5003;28056;51.112;0.984;2023-04-24T06:13:32;57;42;
42410;PMS5003;28056;51.112;0.984;2023-04-24T06:15:59;49;44;
42410;PMS5003;28056;51.112;0.984;2023-04-24T06:18:27;38;34;
42410;PMS5003;28056;51.112;0.984;2023-04-24T06:20:55;51;47;
42410;PMS5003;28056;51.112;0.984;2023-04-24T06:23:22;37;37;
42410;PMS5003;28056;51.112;0.984;2023-04-24T06:25:49;41;37;
42410;PMS5003;28056;51.112;0.984;2023-04-24T06:28:17;48;37;
42410;PMS5003;28056;51.112;0.984;2023-04-24T06:30:45;45;41;
42410;PMS5003;28056;51.112;0.984;2023-04-24T06:33:12;37;35;
42410;PMS5003;28056;51.112;0.984;2023-04-24T06:35:39;46;41;
42410;PMS5003;28056;51.112;0.984;2023-04-24T06:38:08;54;42;
42410;PMS5003;28056;51.112;0.984;2023-04-24T06:40:36;37;36;
42410;PMS5003;28056;51.112;0.984;2023-04-24T06:43:04;51;48;
42410;PMS5003;28056;51.112;0.984;2023-04-24T06:45:31;41;36;
42410;PMS5003;28056;51.112;0.984;2023-04-24T06:47:59;42;37;
42410;PMS5003;28056;51.112;0.984;2023-04-24T06:50:27;36;32;
42410;PMS5003;28056;51.112;0.984;2023-04-24T06:52:54;48;43;
42410;PMS5003;28056;51.112;0.984;2023-04-24T06:55:21;42;39;
42410;PMS5003;28056;51.112;0.984;2023-04-24T06:57:48;46;43;
42410;PMS5003;28056;51.112;0.984;2023-04-24T07:00:16;47;39;
42410;PMS5003;28056;51.112;0.984;2023-04-24T07:02:43;30;30;
42410;PMS5003;28056;51.112;0.984;2023-04-24T07:05:11;29;24;
42410;PMS5003;28056;51.112;0.984;2023-04-24T07:07:38;23;21;
42410;PMS5003;28056;51.112;0.984;2023-04-24T07:10:06;22;22;
42410;PMS5003;28056;51.112;0.984;2023-04-24T07:12:33;23;18;
42410;PMS5003;28056;51.112;0.984;2023-04-24T07:15:00;23;16;
42410;PMS5003;28056;51.112;0.984;2023-04-24T07:17:27;16;15;
42410;PMS5003;28056;51.112;0.984;2023-04-24T07:19:55;19;17;
42410;PMS5003;28056;51.112;0.984;2023-04-24T07:22:22;19;16;
42410;PMS5003;28056;51.112;0.984;2023-04-24T07:24:50;14;14;
42410;PMS5003;28056;51.112;0.984;2023-04-24T07:27:17;15;15;
42410;PMS5003;28056;51.112;0.984;2023-04-24T07:30:07;15;15;
42410;PMS5003;28056;51.112;0.984;2023-04-24T07:32:35;18;16;
42410;PMS5003;28056;51.112;0.984;2023-04-24T07:35:02;22;15;
42410;PMS5003;28056;51.112;0.984;2023-04-24T07:37:30;15;15;
42410;PMS5003;28056;51.112;0.984;2023-04-24T07:40:08;11;11;
42410;PMS5003;28056;51.112;0.984;2023-04-24T07:42:45;16;15;
42410;PMS5003;28056;51.112;0.984;2023-04-24T07:45:22;12;12;
42410;PMS5003;28056;51.112;0.984;2023-04-24T07:52:23;16;16;
42410;PMS5003;28056;51.112;0.984;2023-04-24T07:54:52;14;12;
42410;PMS5003;28056;51.112;0.984;2023-04-24T07:57:19;8;8;
42410;PMS5003;28056;51.112;0.984;2023-04-24T07:59:47;16;14;
42410;PMS5003;28056;51.112;0.984;2023-04-24T08:06:02;12;11;
42410;PMS5003;28056;51.112;0.984;2023-04-24T08:08:29;20;17;
42410;PMS5003;28056;51.112;0.984;2023-04-24T08:10:57;20;15;
42410;PMS5003;28056;51.112;0.984;2023-04-24T08:13:25;16;16;
42410;PMS5003;28056;51.112;0.984;2023-04-24T08:15:52;15;12;
42410;PMS5003;28056;51.112;0.984;2023-04-24T08:19:26;16;15;
42410;PMS5003;28056;51.112;0.984;2023-04-24T08:21:54;15;13;
42410;PMS5003;28056;51.112;0.984;2023-04-24T08:24:22;13;13;
42410;PMS5003;28056;51.112;0.984;2023-04-24T08:26:49;21;13;
42410;PMS5003;28056;51.112;0.984;2023-04-24T08:29:17;12;11;
42410;PMS5003;28056;51.112;0.984;2023-04-24T08:31:44;20;13;
42410;PMS5003;28056;51.112;0.984;2023-04-24T08:34:17;15;13;
42410;PMS5003;28056;51.112;0.984;2023-04-24T08:36:48;13;13;
42410;PMS5003;28056;51.112;0.984;2023-04-24T08:39:15;18;15;
42410;PMS5003;28056;51.112;0.984;2023-04-24T08:41:44;18;16;
42410;PMS5003;28056;51.112;0.984;2023-04-24T08:44:12;16;12;
42410;PMS5003;28056;51.112;0.984;2023-04-24T08:46:39;16;12;
42410;PMS5003;28056;51.112;0.984;2023-04-24T08:49:09;18;14;
42410;PMS5003;28056;51.112;0.984;2023-04-24T08:51:36;12;12;
42410;PMS5003;28056;51.112;0.984;2023-04-24T08:54:04;16;12;
42410;PMS5003;28056;51.112;0.984;2023-04-24T08:56:34;14;13;
42410;PMS5003;28056;51.112;0.984;2023-04-24T08:59:04;13;11;
42410;PMS5003;28056;51.112;0.984;2023-04-24T09:01:33;14;12;
42410;PMS5003;28056;51.112;0.984;2023-04-24T09:04:03;13;11;
42410;PMS5003;28056;51.112;0.984;2023-04-24T09:06:32;14;11;
42410;PMS5003;28056;51.112;0.984;2023-04-24T09:09:01;11;9;
42410;PMS5003;28056;51.112;0.984;2023-04-24T09:11:30;13;11;
42410;PMS5003;28056;51.112;0.984;2023-04-24T09:13:58;13;13;
42410;PMS5003;28056;51.112;0.984;2023-04-24T09:16:26;14;13;
42410;PMS5003;28056;51.112;0.984;2023-04-24T09:18:53;13;13;
42410;PMS5003;28056;51.112;0.984;2023-04-24T09:21:21;14;13;
42410;PMS5003;28056;51.112;0.984;2023-04-24T09:23:57;14;13;
42410;PMS5003;28056;51.112;0.984;2023-04-24T09:26:26;16;13;
42410;PMS5003;28056;51.112;0.984;2023-04-24T09:28:56;12;12;
42410;PMS5003;28056;51.112;0.984;2023-04-24T09:31:23;14;14;
42410;PMS5003;28056;51.112;0.984;2023-04-24T09:33:54;11;11;
42410;PMS5003;28056;51.112;0.984;2023-04-24T09:36:30;15;14;
42410;PMS5003;28056;51.112;0.984;2023-04-24T09:38:59;15;12;
42410;PMS5003;28056;51.112;0.984;2023-04-24T09:41:27;12;11;
42410;PMS5003;28056;51.112;0.984;2023-04-24T09:43:55;17;16;
42410;PMS5003;28056;51.112;0.984;2023-04-24T09:46:29;14;14;
42410;PMS5003;28056;51.112;0.984;2023-04-24T09:48:57;17;14;
42410;PMS5003;28056;51.112;0.984;2023-04-24T09:51:34;12;11;
42410;PMS5003;28056;51.112;0.984;2023-04-24T09:54:03;11;9;
42410;PMS5003;28056;51.112;0.984;2023-04-24T09:56:32;12;12;
42410;PMS5003;28056;51.112;0.984;2023-04-24T09:59:07;9;9;
42410;PMS5003;28056;51.112;0.984;2023-04-24T10:01:34;11;10;
42410;PMS5003;28056;51.112;0.984;2023-04-24T10:04:02;14;9;
42410;PMS5003;28056;51.112;0.984;2023-04-24T10:06:32;9;7;
42410;PMS5003;28056;51.112;0.984;2023-04-24T10:09:01;8;8;
42410;PMS5003;28056;51.112;0.984;2023-04-24T10:11:29;12;9;
42410;PMS5003;28056;51.112;0.984;2023-04-24T10:13:57;11;8;
42410;PMS5003;28056;51.112;0.984;2023-04-24T10:16:24;14;12;
42410;PMS5003;28056;51.112;0.984;2023-04-24T10:18:52;11;9;
42410;PMS5003;28056;51.112;0.984;2023-04-24T10:21:20;9;9;
42410;PMS5003;28056;51.112;0.984;2023-04-24T10:23:49;13;10;
42410;PMS5003;28056;51.112;0.984;2023-04-24T10:26:17;10;9;
42410;PMS5003;28056;51.112;0.984;2023-04-24T10:28:46;10;9;
42410;PMS5003;28056;51.112;0.984;2023-04-24T10:31:14;10;9;
42410;PMS5003;28056;51.112;0.984;2023-04-24T10:33:41;10;8;
42410;PMS5003;28056;51.112;0.984;2023-04-24T10:36:10;10;9;
42410;PMS5003;28056;51.112;0.984;2023-04-24T10:38:40;13;13;
42410;PMS5003;28056;51.112;0.984;2023-04-24T10:41:10;10;10;
42410;PMS5003;28056;51.112;0.984;2023-04-24T10:43:39;10;9;
42410;PMS5003;28056;51.112;0.984;2023-04-24T10:46:07;10;8;
42410;PMS5003;28056;51.112;0.984;2023-04-24T10:48:35;10;10;
42410;PMS5003;28056;51.112;0.984;2023-04-24T10:51:10;10;9;
42410;PMS5003;28056;51.112;0.984;2023-04-24T10:53:39;9;9;
42410;PMS5003;28056;51.112;0.984;2023-04-24T10:56:08;15;14;
42410;PMS5003;28056;51.112;0.984;2023-04-24T10:58:36;17;10;
42410;PMS5003;28056;51.112;0.984;2023-04-24T11:01:55;11;11;
42410;PMS5003;28056;51.112;0.984;2023-04-24T11:04:48;12;11;
42410;PMS5003;28056;51.112;0.984;2023-04-24T11:08:26;19;17;
42410;PMS5003;28056;51.112;0.984;2023-04-24T11:10:58;12;11;
42410;PMS5003;28056;51.112;0.984;2023-04-24T11:13:28;15;14;
42410;PMS5003;28056;51.112;0.984;2023-04-24T11:16:29;16;13;
42410;PMS5003;28056;51.112;0.984;2023-04-24T11:19:05;13;11;
42410;PMS5003;28056;51.112;0.984;2023-04-24T11:21:41;12;12;
42410;PMS5003;28056;51.112;0.984;2023-04-24T11:24:49;12;10;
42410;PMS5003;28056;51.112;0.984;2023-04-24T11:27:19;17;13;
42410;PMS5003;28056;51.112;0.984;2023-04-24T11:29:47;13;12;
42410;PMS5003;28056;51.112;0.984;2023-04-24T11:32:16;10;10;
42410;PMS5003;28056;51.112;0.984;2023-04-24T11:34:45;11;11;
42410;PMS5003;28056;51.112;0.984;2023-04-24T11:37:14;12;10;
42410;PMS5003;28056;51.112;0.984;2023-04-24T11:39:42;13;11;
42410;PMS5003;28056;51.112;0.984;2023-04-24T11:42:10;12;11;
42410;PMS5003;28056;51.112;0.984;2023-04-24T11:44:41;10;10;
42410;PMS5003;28056;51.112;0.984;2023-04-24T11:47:09;11;10;
42410;PMS5003;28056;51.112;0.984;2023-04-24T11:49:37;14;10;
42410;PMS5003;28056;51.112;0.984;2023-04-24T11:52:06;15;12;
42410;PMS5003;28056;51.112;0.984;2023-04-24T11:54:35;16;13;
42410;PMS5003;28056;51.112;0.984;2023-04-24T11:57:04;10;10;
42410;PMS5003;28056;51.112;0.984;2023-04-24T11:59:35;16;14;
42410;PMS5003;28056;51.112;0.984;2023-04-24T12:02:03;14;12;
42410;PMS5003;28056;51.112;0.984;2023-04-24T12:04:38;13;12;
42410;PMS5003;28056;51.112;0.984;2023-04-24T12:07:07;11;11;
42410;PMS5003;28056;51.112;0.984;2023-04-24T12:09:43;12;11;
42410;PMS5003;28056;51.112;0.984;2023-04-24T12:12:11;13;12;
42410;PMS5003;28056;51.112;0.984;2023-04-24T12:14:43;14;14;
42410;PMS5003;28056;51.112;0.984;2023-04-24T12:17:11;12;12;
42410;PMS5003;28056;51.112;0.984;2023-04-24T12:19:44;9;9;
42410;PMS5003;28056;51.112;0.984;2023-04-24T12:22:14;8;8;
42410;PMS5003;28056;51.112;0.984;2023-04-24T12:24:57;6;6;
42410;PMS5003;28056;51.112;0.984;2023-04-24T12:27:28;16;16;
42410;PMS5003;28056;51.112;0.984;2023-04-24T12:29:58;16;16;
42410;PMS5003;28056;51.112;0.984;2023-04-24T12:32:26;15;15;
42410;PMS5003;28056;51.112;0.984;2023-04-24T12:34:54;20;16;
42410;PMS5003;28056;51.112;0.984;2023-04-24T12:37:23;22;20;
42410;PMS5003;28056;51.112;0.984;2023-04-24T12:40:00;20;20;
42410;PMS5003;28056;51.112;0.984;2023-04-24T12:42:30;35;26;
42410;PMS5003;28056;51.112;0.984;2023-04-24T12:44:58;23;21;
42410;PMS5003;28056;51.112;0.984;2023-04-24T12:47:26;24;24;
42410;PMS5003;28056;51.112;0.984;2023-04-24T12:49:54;20;20;
42410;PMS5003;28056;51.112;0.984;2023-04-24T12:52:22;25;24;
42410;PMS5003;28056;51.112;0.984;2023-04-24T12:54:50;19;19;
42410;PMS5003;28056;51.112;0.984;2023-04-24T12:57:19;19;18;
42410;PMS5003;28056;51.112;0.984;2023-04-24T12:59:47;19;16;
42410;PMS5003;28056;51.112;0.984;2023-04-24T13:02:15;14;13;
42410;PMS5003;28056;51.112;0.984;2023-04-24T13:04:43;21;19;
42410;PMS5003;28056;51.112;0.984;2023-04-24T13:07:11;18;18;
42410;PMS5003;28056;51.112;0.984;2023-04-24T13:09:39;18;16;
42410;PMS5003;28056;51.112;0.984;2023-04-24T13:12:06;20;18;
42410;PMS5003;28056;51.112;0.984;2023-04-24T13:14:34;19;18;
42410;PMS5003;28056;51.112;0.984;2023-04-24T13:17:02;19;19;
42410;PMS5003;28056;51.112;0.984;2023-04-24T13:19:34;12;12;
42410;PMS5003;28056;51.112;0.984;2023-04-24T13:22:03;13;10;
42410;PMS5003;28056;51.112;0.984;2023-04-24T13:24:31;11;11;
42410;PMS5003;28056;51.112;0.984;2023-04-24T13:26:59;11;11;
42410;PMS5003;28056;51.112;0.984;2023-04-24T13:29:27;8;8;
42410;PMS5003;28056;51.112;0.984;2023-04-24T13:31:55;11;8;
42410;PMS5003;28056;51.112;0.984;2023-04-24T13:34:23;13;9;
42410;PMS5003;28056;51.112;0.984;2023-04-24T13:36:52;12;12;
42410;PMS5003;28056;51.112;0.984;2023-04-24T13:39:21;10;10;
42410;PMS5003;28056;51.112;0.984;2023-04-24T13:41:54;9;9;
42410;PMS5003;28056;51.112;0.984;2023-04-24T13:44:22;15;12;
42410;PMS5003;28056;51.112;0.984;2023-04-24T13:46:52;10;10;
42410;PMS5003;28056;51.112;0.984;2023-04-24T13:49:21;13;10;
42410;PMS5003;28056;51.112;0.984;2023-04-24T13:51:48;13;10;
42410;PMS5003;28056;51.112;0.984;2023-04-24T13:54:16;14;11;
42410;PMS5003;28056;51.112;0.984;2023-04-24T13:56:44;11;11;
42410;PMS5003;28056;51.112;0.984;2023-04-24T13:59:12;9;9;
42410;PMS5003;28056;51.112;0.984;2023-04-24T14:01:39;10;9;
42410;PMS5003;28056;51.112;0.984;2023-04-24T14:04:07;9;8;
42410;PMS5003;28056;51.112;0.984;2023-04-24T14:06:35;9;9;
42410;PMS5003;28056;51.112;0.984;2023-04-24T14:09:02;8;8;
42410;PMS5003;28056;51.112;0.984;2023-04-24T14:11:29;10;10;
42410;PMS5003;28056;51.112;0.984;2023-04-24T14:13:57;10;9;
42410;PMS5003;28056;51.112;0.984;2023-04-24T14:16:24;20;15;
42410;PMS5003;28056;51.112;0.984;2023-04-24T14:18:52;12;10;
42410;PMS5003;28056;51.112;0.984;2023-04-24T14:21:19;13;13;
42410;PMS5003;28056;51.112;0.984;2023-04-24T14:23:47;10;9;
42410;PMS5003;28056;51.112;0.984;2023-04-24T14:26:14;14;14;
42410;PMS5003;28056;51.112;0.984;2023-04-24T14:28:42;13;13;
42410;PMS5003;28056;51.112;0.984;2023-04-24T14:31:09;14;10;
42410;PMS5003;28056;51.112;0.984;2023-04-24T14:33:36;16;14;
42410;PMS5003;28056;51.112;0.984;2023-04-24T14:36:04;15;13;
42410;PMS5003;28056;51.112;0.984;2023-04-24T14:38:32;15;14;
42410;PMS5003;28056;51.112;0.984;2023-04-24T14:41:01;13;13;
42410;PMS5003;28056;51.112;0.984;2023-04-24T14:43:28;16;15;
42410;PMS5003;28056;51.112;0.984;2023-04-24T14:45:55;14;14;
42410;PMS5003;28056;51.112;0.984;2023-04-24T14:48:22;15;14;
42410;PMS5003;28056;51.112;0.984;2023-04-24T14:50:49;15;14;
42410;PMS5003;28056;51.112;0.984;2023-04-24T14:53:17;17;15;
42410;PMS5003;28056;51.112;0.984;2023-04-24T14:55:44;14;13;
42410;PMS5003;28056;51.112;0.984;2023-04-24T14:58:12;13;13;
42410;PMS5003;28056;51.112;0.984;2023-04-24T15:00:39;17;15;
42410;PMS5003;28056;51.112;0.984;2023-04-24T15:03:06;13;13;
42410;PMS5003;28056;51.112;0.984;2023-04-24T15:05:34;15;14;
42410;PMS5003;28056;51.112;0.984;2023-04-24T15:08:02;16;16;
42410;PMS5003;28056;51.112;0.984;2023-04-24T15:10:29;17;17;
42410;PMS5003;28056;51.112;0.984;2023-04-24T15:12:57;13;13;
42410;PMS5003;28056;51.112;0.984;2023-04-24T15:15:24;19;15;
42410;PMS5003;28056;51.112;0.984;2023-04-24T15:17:52;12;12;
42410;PMS5003;28056;51.112;0.984;2023-04-24T15:20:19;13;10;
42410;PMS5003;28056;51.112;0.984;2023-04-24T15:22:47;9;9;
42410;PMS5003;28056;51.112;0.984;2023-04-24T15:25:20;13;13;
42410;PMS5003;28056;51.112;0.984;2023-04-24T15:27:48;15;15;
42410;PMS5003;28056;51.112;0.984;2023-04-24T15:30:15;18;18;
42410;PMS5003;28056;51.112;0.984;2023-04-24T15:32:42;13;13;
42410;PMS5003;28056;51.112;0.984;2023-04-24T15:35:10;15;15;
42410;PMS5003;28056;51.112;0.984;2023-04-24T15:37:38;14;14;
42410;PMS5003;28056;51.112;0.984;2023-04-24T15:40:05;18;17;
42410;PMS5003;28056;51.112;0.984;2023-04-24T15:42:40;7;7;
42410;PMS5003;28056;51.112;0.984;2023-04-24T15:45:09;8;8;
42410;PMS5003;28056;51.112;0.984;2023-04-24T15:47:37;12;12;
42410;PMS5003;28056;51.112;0.984;2023-04-24T15:50:05;10;8;
42410;PMS5003;28056;51.112;0.984;2023-04-24T15:52:34;11;11;
42410;PMS5003;28056;51.112;0.984;2023-04-24T15:55:02;16;15;
42410;PMS5003;28056;51.112;0.984;2023-04-24T15:57:30;19;17;
42410;PMS5003;28056;51.112;0.984;2023-04-24T15:59:58;12;12;
42410;PMS5003;28056;51.112;0.984;2023-04-24T16:02:26;16;12;
42410;PMS5003;28056;51.112;0.984;2023-04-24T16:04:54;10;10;
42410;PMS5003;28056;51.112;0.984;2023-04-24T16:07:21;10;10;
42410;PMS5003;28056;51.112;0.984;2023-04-24T16:09:49;13;11;
42410;PMS5003;28056;51.112;0.984;2023-04-24T16:12:17;11;11;
42410;PMS5003;28056;51.112;0.984;2023-04-24T16:14:44;12;10;
42410;PMS5003;28056;51.112;0.984;2023-04-24T16:17:12;13;11;
42410;PMS5003;28056;51.112;0.984;2023-04-24T16:19:40;8;8;
42410;PMS5003;28056;51.112;0.984;2023-04-24T16:22:08;9;9;
42410;PMS5003;28056;51.112;0.984;2023-04-24T16:24:35;9;9;
42410;PMS5003;28056;51.112;0.984;2023-04-24T16:27:03;9;9;
42410;PMS5003;28056;51.112;0.984;2023-04-24T16:29:30;9;8;
42410;PMS5003;28056;51.112;0.984;2023-04-24T16:31:59;9;9;
42410;PMS5003;28056;51.112;0.984;2023-04-24T16:34:27;8;8;
42410;PMS5003;28056;51.112;0.984;2023-04-24T16:36:55;9;7;
42410;PMS5003;28056;51.112;0.984;2023-04-24T16:39:23;12;11;
42410;PMS5003;28056;51.112;0.984;2023-04-24T16:41:56;8;8;
42410;PMS5003;28056;51.112;0.984;2023-04-24T16:44:29;8;8;